Time;durP1;ratioP1;P1;durP2;ratioP2;P2;SDS_P1;SDS_P2;PMS_P1;PMS_P2;Temp;Humidity;BMP_temperature;BMP_pressure;BME280_temperature;BME280_humidity;BME280_pressure;Samples;Min_cycle;Max_cycle;Signal;HPM_P1;HPM_P2
2023/09/09 00:01:31;;;;;;;9.63;6.72;;;23.30;74.50;;;;;;5112445;28;20066;-37
2023/09/09 00:03:58;;;;;;;7.00;6.30;;;23.30;74.50;;;;;;5112123;28;20058;-35
2023/09/09 00:06:23;;;;;;;7.53;5.82;;;23.20;74.50;;;;;;5112408;28;20019;-37
2023/09/09 00:08:49;;;;;;;7.63;6.60;;;23.20;74.50;;;;;;5112313;28;20389;-36
2023/09/09 00:11:14;;;;;;;7.75;6.25;;;23.20;74.60;;;;;;5112269;28;20149;-38
2023/09/09 00:13:40;;;;;;;7.00;6.30;;;23.20;74.70;;;;;;5112147;28;20023;-33
2023/09/09 00:16:06;;;;;;;6.70;6.00;;;23.20;74.70;;;;;;5112135;28;20030;-35
2023/09/09 00:18:32;;;;;;;7.03;5.85;;;23.10;74.90;;;;;;5111937;28;20100;-32
2023/09/09 00:20:58;;;;;;;10.40;5.93;;;23.10;74.90;;;;;;5111939;28;20055;-31
2023/09/09 00:23:23;;;;;;;6.80;6.10;;;23.10;74.90;;;;;;5111672;28;20534;-34
2023/09/09 00:25:49;;;;;;;7.55;6.53;;;23.10;75.00;;;;;;5112004;28;20338;-30
2023/09/09 00:28:15;;;;;;;8.23;5.90;;;23.00;75.10;;;;;;5111871;28;20044;-30
2023/09/09 00:30:42;;;;;;;7.80;5.85;;;23.00;75.10;;;;;;5112328;28;20026;-29
2023/09/09 00:33:08;;;;;;;6.80;6.07;;;23.00;75.20;;;;;;5112050;28;20016;-29
2023/09/09 00:35:34;;;;;;;8.40;6.22;;;23.00;75.30;;;;;;5111901;28;20024;-30
2023/09/09 00:38:00;;;;;;;7.00;6.30;;;22.90;75.30;;;;;;5112038;28;20050;-29
2023/09/09 00:40:26;;;;;;;7.55;6.50;;;22.90;75.40;;;;;;5111677;28;20041;-35
2023/09/09 00:42:52;;;;;;;9.00;6.88;;;22.90;75.50;;;;;;5111591;28;20020;-34
2023/09/09 00:45:17;;;;;;;7.82;6.53;;;22.90;75.60;;;;;;5111632;28;20084;-44
2023/09/09 00:47:44;;;;;;;7.10;6.40;;;22.80;75.50;;;;;;5111782;28;20431;-44
2023/09/09 00:50:11;;;;;;;7.20;6.50;;;22.80;75.60;;;;;;5111681;28;20039;-45
2023/09/09 00:52:42;;;;;;;6.75;6.05;;;22.80;75.70;;;;;;5111378;28;20027;-40
2023/09/09 00:55:10;;;;;;;8.65;6.70;;;22.80;75.70;;;;;;5115303;28;20040;-42
2023/09/09 00:57:36;;;;;;;7.35;6.65;;;22.80;75.70;;;;;;5097601;28;20028;-40
2023/09/09 01:00:09;;;;;;;7.78;6.82;;;22.80;75.70;;;;;;5115797;28;20027;-44
2023/09/09 01:02:39;;;;;;;8.13;6.90;;;22.80;75.80;;;;;;5115205;28;20134;-43
2023/09/09 01:05:09;;;;;;;6.72;6.00;;;22.80;75.90;;;;;;5115705;28;20072;-45
2023/09/09 01:08:01;;;;;;;7.32;6.53;;;22.70;76.00;;;;;;5116486;28;20110;-44
2023/09/09 01:10:26;;;;;;;7.32;6.18;;;22.70;76.00;;;;;;5111875;28;20036;-42
2023/09/09 01:12:52;;;;;;;7.88;6.38;;;22.70;76.00;;;;;;5115490;28;20038;-43
2023/09/09 01:15:18;;;;;;;7.07;6.30;;;22.60;76.00;;;;;;5115642;28;20378;-45
2023/09/09 01:17:44;;;;;;;7.68;6.20;;;22.60;76.10;;;;;;5115568;28;20102;-42
2023/09/09 01:20:15;;;;;;;6.90;6.28;;;22.60;76.20;;;;;;5115548;28;20537;-43
2023/09/09 01:22:43;;;;;;;7.68;6.50;;;22.60;76.20;;;;;;5115601;28;20030;-44
2023/09/09 01:25:10;;;;;;;6.70;6.10;;;22.60;76.20;;;;;;5115656;28;20035;-44
2023/09/09 01:27:36;;;;;;;8.13;6.78;;;22.60;76.30;;;;;;5115186;28;20058;-44
2023/09/09 01:30:02;;;;;;;6.72;6.07;;;22.60;76.40;;;;;;5115562;28;20016;-43
2023/09/09 01:32:27;;;;;;;7.43;6.72;;;22.50;76.30;;;;;;5115228;28;20102;-45
2023/09/09 01:34:53;;;;;;;7.10;6.32;;;22.50;76.30;;;;;;5115535;28;20024;-43
2023/09/09 01:37:19;;;;;;;8.00;6.90;;;22.50;76.40;;;;;;5115236;28;20024;-43
2023/09/09 01:39:44;;;;;;;8.23;6.22;;;22.50;76.40;;;;;;5096932;28;20034;-41
2023/09/09 01:42:10;;;;;;;7.25;6.20;;;22.50;76.50;;;;;;5114978;28;20046;-42
2023/09/09 01:44:36;;;;;;;7.60;6.35;;;22.50;76.60;;;;;;5096594;28;20496;-43
2023/09/09 01:47:02;;;;;;;7.88;5.82;;;22.50;76.60;;;;;;5114981;28;20027;-43
2023/09/09 01:49:27;;;;;;;6.65;6.05;;;22.40;76.60;;;;;;5115146;28;20469;-44
2023/09/09 01:51:53;;;;;;;8.85;6.55;;;22.40;76.60;;;;;;5114769;28;20525;-45
2023/09/09 01:54:18;;;;;;;6.97;6.28;;;22.40;76.60;;;;;;5114887;28;20031;-44
2023/09/09 01:56:44;;;;;;;7.43;6.43;;;22.40;76.70;;;;;;5114722;28;20370;-44
2023/09/09 01:59:09;;;;;;;7.97;6.05;;;22.40;76.70;;;;;;5096416;28;20055;-43
2023/09/09 02:01:35;;;;;;;7.90;6.10;;;22.40;76.70;;;;;;5115078;28;20019;-31
2023/09/09 02:04:01;;;;;;;6.82;6.07;;;22.40;76.70;;;;;;5114459;28;20020;-33
2023/09/09 02:06:27;;;;;;;7.45;6.35;;;22.40;77.30;;;;;;5113604;28;20097;-31
2023/09/09 02:08:53;;;;;;;6.38;5.78;;;22.40;76.70;;;;;;5114514;28;20023;-30
2023/09/09 02:11:19;;;;;;;10.07;7.03;;;22.40;76.70;;;;;;5114495;28;20023;-31
2023/09/09 02:13:44;;;;;;;7.47;6.68;;;22.40;76.80;;;;;;5114701;28;20030;-32
2023/09/09 02:16:10;;;;;;;7.20;6.50;;;22.30;76.80;;;;;;5114445;28;20034;-31
2023/09/09 02:18:39;;;;;;;8.27;6.45;;;22.30;76.80;;;;;;5114419;28;20031;-32
2023/09/09 02:21:06;;;;;;;7.60;6.80;;;22.30;76.90;;;;;;5114633;28;20050;-32
2023/09/09 02:23:32;;;;;;;8.25;7.03;;;22.30;76.90;;;;;;5114356;28;20111;-30
2023/09/09 02:25:58;;;;;;;8.73;7.45;;;22.20;77.00;;;;;;5114522;28;20166;-35
2023/09/09 02:28:24;;;;;;;7.97;7.18;;;22.20;77.00;;;;;;5114161;28;20046;-35
2023/09/09 02:30:50;;;;;;;7.40;6.70;;;22.20;77.10;;;;;;5114514;28;20016;-32
2023/09/09 02:33:15;;;;;;;8.35;7.18;;;22.20;77.10;;;;;;5114372;28;20057;-36
2023/09/09 02:35:42;;;;;;;9.82;7.38;;;22.20;77.10;;;;;;5114491;28;20495;-31
2023/09/09 02:38:08;;;;;;;7.15;6.45;;;22.20;77.10;;;;;;5114359;28;20050;-37
2023/09/09 02:40:33;;;;;;;7.75;6.95;;;22.20;77.20;;;;;;5114149;28;20431;-32
2023/09/09 02:42:59;;;;;;;8.15;7.30;;;22.10;77.10;;;;;;5113961;28;20700;-32
2023/09/09 02:45:24;;;;;;;6.90;6.20;;;22.10;77.10;;;;;;5113924;28;20023;-36
2023/09/09 02:47:50;;;;;;;8.27;6.93;;;22.10;77.10;;;;;;5114103;28;20026;-30
2023/09/09 02:50:16;;;;;;;7.60;6.90;;;22.10;77.20;;;;;;5095593;28;20028;-35
2023/09/09 02:52:41;;;;;;;7.90;6.60;;;22.10;77.20;;;;;;5113628;28;20377;-32
2023/09/09 02:55:08;;;;;;;8.90;6.57;;;22.10;77.30;;;;;;5113738;28;20069;-36
2023/09/09 02:57:33;;;;;;;7.50;6.70;;;22.10;77.30;;;;;;5113985;28;20381;-31
2023/09/09 02:59:59;;;;;;;7.75;6.85;;;22.00;77.30;;;;;;5113723;28;20020;-31
2023/09/09 03:02:24;;;;;;;11.02;7.20;;;22.00;77.30;;;;;;5113552;28;20148;-31
2023/09/09 03:04:50;;;;;;;7.78;6.82;;;22.00;77.40;;;;;;5113774;28;20024;-31
2023/09/09 03:07:16;;;;;;;8.77;6.90;;;22.00;77.40;;;;;;5113737;28;20453;-33
2023/09/09 03:09:42;;;;;;;8.35;7.30;;;22.00;77.50;;;;;;5113522;28;20485;-34
2023/09/09 03:12:08;;;;;;;7.10;6.40;;;21.90;77.40;;;;;;5113592;28;20020;-30
2023/09/09 03:14:33;;;;;;;9.35;6.85;;;21.90;77.50;;;;;;5113387;28;20023;-31
2023/09/09 03:16:59;;;;;;;7.82;7.03;;;21.90;77.50;;;;;;5113139;28;20028;-43
2023/09/09 03:19:24;;;;;;;8.02;7.22;;;21.90;77.50;;;;;;5113893;28;20087;-44
2023/09/09 03:21:50;;;;;;;7.65;6.88;;;21.90;77.60;;;;;;5113237;28;20028;-35
2023/09/09 03:24:16;;;;;;;8.52;7.05;;;21.90;77.60;;;;;;5112903;28;20035;-34
2023/09/09 03:26:42;;;;;;;7.80;7.05;;;21.90;77.70;;;;;;5113284;28;20035;-30
2023/09/09 03:29:07;;;;;;;8.68;7.60;;;21.80;77.70;;;;;;5113149;28;20031;-44
2023/09/09 03:31:34;;;;;;;7.72;6.82;;;21.80;77.70;;;;;;5112997;28;20020;-44
2023/09/09 03:34:00;;;;;;;9.02;8.13;;;21.80;77.70;;;;;;5113094;28;20362;-43
2023/09/09 03:36:25;;;;;;;10.23;7.25;;;21.80;77.80;;;;;;5113242;28;20023;-41
2023/09/09 03:38:51;;;;;;;8.25;7.45;;;21.80;77.80;;;;;;5113135;28;20487;-42
2023/09/09 03:41:16;;;;;;;8.15;7.32;;;21.80;77.80;;;;;;5094563;28;20057;-43
2023/09/09 03:43:42;;;;;;;8.35;7.55;;;21.70;77.70;;;;;;5112517;28;20028;-44
2023/09/09 03:46:08;;;;;;;10.77;7.38;;;21.70;77.70;;;;;;5112850;28;20048;-44
2023/09/09 03:48:33;;;;;;;8.23;7.22;;;21.70;77.80;;;;;;5113018;28;20089;-43
2023/09/09 03:51:00;;;;;;;8.27;7.22;;;21.70;77.80;;;;;;5112702;28;20020;-41
2023/09/09 03:53:26;;;;;;;8.20;7.40;;;21.70;77.80;;;;;;5112746;28;20252;-44
2023/09/09 03:55:52;;;;;;;8.57;7.70;;;21.70;77.90;;;;;;5112320;28;20020;-44
2023/09/09 03:58:17;;;;;;;9.23;7.68;;;21.70;77.90;;;;;;5112760;28;20355;-41
2023/09/09 04:00:46;;;;;;;10.20;8.20;;;21.60;77.90;;;;;;5112836;28;20023;-44
2023/09/09 04:03:12;;;;;;;9.00;7.85;;;21.60;77.90;;;;;;5112623;28;20030;-44
2023/09/09 04:05:39;;;;;;;11.63;10.18;;;21.60;77.90;;;;;;5093922;28;20118;-43
2023/09/09 04:08:08;;;;;;;12.32;11.13;;;21.60;78.00;;;;;;5112387;28;20370;-44
2023/09/09 04:10:34;;;;;;;13.85;10.05;;;21.60;78.00;;;;;;5112266;28;20042;-40
2023/09/09 04:13:00;;;;;;;10.25;9.25;;;21.60;78.00;;;;;;5093718;28;20118;-42
2023/09/09 04:15:26;;;;;;;10.63;9.40;;;21.50;78.00;;;;;;5112253;28;20157;-45
2023/09/09 04:17:51;;;;;;;10.23;8.75;;;21.60;78.10;;;;;;5112204;28;20012;-42
2023/09/09 04:20:17;;;;;;;10.23;8.40;;;21.50;78.10;;;;;;5112075;28;20012;-42
2023/09/09 04:22:42;;;;;;;10.07;7.88;;;21.50;78.10;;;;;;5111881;28;20024;-31
2023/09/09 04:25:08;;;;;;;10.38;8.32;;;21.50;78.10;;;;;;5112000;28;20026;-35
2023/09/09 04:27:34;;;;;;;9.40;8.40;;;21.40;78.10;;;;;;5112077;28;20044;-32
2023/09/09 04:29:59;;;;;;;9.32;8.40;;;21.40;78.10;;;;;;5111348;28;20023;-37
2023/09/09 04:32:25;;;;;;;10.32;8.63;;;21.40;78.20;;;;;;5111884;28;20074;-29
2023/09/09 04:34:50;;;;;;;9.40;8.43;;;21.40;78.30;;;;;;5111972;28;20027;-36
2023/09/09 04:37:16;;;;;;;9.82;8.80;;;21.40;78.30;;;;;;5112169;28;20069;-31
2023/09/09 04:39:41;;;;;;;11.25;9.95;;;21.40;78.40;;;;;;5112090;28;20105;-34
2023/09/09 04:42:07;;;;;;;11.57;10.38;;;21.30;78.60;;;;;;5112255;28;20020;-29
2023/09/09 04:44:33;;;;;;;12.95;11.50;;;21.30;79.50;;;;;;5111708;28;20028;-30
2023/09/09 04:46:58;;;;;;;14.98;13.43;;;21.30;79.10;;;;;;5112156;28;20028;-33
2023/09/09 04:49:24;;;;;;;17.17;15.38;;;21.30;79.30;;;;;;5112568;28;20019;-31
2023/09/09 04:51:50;;;;;;;17.55;15.73;;;21.30;79.50;;;;;;5111791;28;20035;-34
2023/09/09 04:54:17;;;;;;;18.35;16.45;;;21.30;79.70;;;;;;5111798;28;20050;-38
2023/09/09 04:56:42;;;;;;;17.90;16.00;;;21.30;79.80;;;;;;5112002;28;20019;-30
2023/09/09 04:59:08;;;;;;;17.48;15.52;;;21.30;80.00;;;;;;5112045;28;20545;-34
2023/09/09 05:01:33;;;;;;;17.27;15.45;;;21.30;80.00;;;;;;5093503;28;20030;-37
2023/09/09 05:03:59;;;;;;;17.88;16.00;;;21.30;80.10;;;;;;5111456;28;20381;-30
2023/09/09 05:06:25;;;;;;;18.17;15.75;;;21.30;80.10;;;;;;5111814;28;20461;-30
2023/09/09 05:08:50;;;;;;;16.60;14.80;;;21.30;80.10;;;;;;5111818;28;20438;-33
2023/09/09 05:11:16;;;;;;;18.98;16.80;;;21.20;80.00;;;;;;5111653;28;20020;-36
2023/09/09 05:13:41;;;;;;;20.63;18.15;;;21.20;80.10;;;;;;5111628;28;20031;-41
2023/09/09 05:16:07;;;;;;;22.00;18.27;;;21.20;80.10;;;;;;5111559;28;20031;-44
2023/09/09 05:18:33;;;;;;;19.92;17.83;;;21.20;80.10;;;;;;5111502;28;20564;-44
2023/09/09 05:20:58;;;;;;;20.05;17.88;;;21.30;80.20;;;;;;5111828;28;20488;-34
2023/09/09 05:23:24;;;;;;;20.70;18.45;;;21.20;80.20;;;;;;5111278;28;20031;-35
2023/09/09 05:25:49;;;;;;;20.20;18.15;;;21.20;80.20;;;;;;5111517;28;20522;-34
2023/09/09 05:28:15;;;;;;;21.75;18.67;;;21.20;80.20;;;;;;5111157;28;20109;-35
2023/09/09 05:30:41;;;;;;;19.38;17.35;;;21.20;80.30;;;;;;5111530;28;20039;-35
2023/09/09 05:33:07;;;;;;;19.80;17.73;;;21.20;80.40;;;;;;5111664;28;20107;-35
2023/09/09 05:35:32;;;;;;;19.98;17.75;;;21.20;80.40;;;;;;5111329;28;20035;-34
2023/09/09 05:37:58;;;;;;;21.45;19.15;;;21.20;80.50;;;;;;5111368;28;20024;-34
2023/09/09 05:40:23;;;;;;;23.23;20.05;;;21.10;80.60;;;;;;5113180;28;20020;-35
2023/09/09 05:42:49;;;;;;;21.55;19.23;;;21.10;80.80;;;;;;5096861;28;20130;-35
2023/09/09 05:45:15;;;;;;;22.73;20.23;;;21.10;80.90;;;;;;5096583;28;20045;-34
2023/09/09 05:47:42;;;;;;;22.52;19.65;;;21.10;81.10;;;;;;5096613;28;20058;-34
2023/09/09 05:50:08;;;;;;;23.15;19.50;;;21.10;81.10;;;;;;5115177;28;20012;-35
2023/09/09 05:52:34;;;;;;;21.20;18.95;;;21.00;81.20;;;;;;5114590;28;20023;-41
2023/09/09 05:54:59;;;;;;;21.33;19.13;;;21.00;81.30;;;;;;5114941;28;20030;-35
2023/09/09 05:57:25;;;;;;;21.58;19.38;;;21.00;81.30;;;;;;5114656;28;20396;-35
2023/09/09 05:59:51;;;;;;;21.45;19.13;;;20.90;81.30;;;;;;5114812;28;20060;-34
2023/09/09 06:02:16;;;;;;;22.98;19.33;;;20.90;81.50;;;;;;5114687;28;20101;-35
2023/09/09 06:04:42;;;;;;;20.40;18.23;;;20.90;81.50;;;;;;5114587;28;20077;-34
2023/09/09 06:07:08;;;;;;;20.00;18.00;;;21.00;81.60;;;;;;5114892;28;20064;-33
2023/09/09 06:09:33;;;;;;;20.60;18.45;;;21.00;81.50;;;;;;5114569;28;20097;-35
2023/09/09 06:11:59;;;;;;;20.95;18.83;;;21.00;81.50;;;;;;5114883;28;20078;-34
2023/09/09 06:14:24;;;;;;;21.85;19.48;;;21.00;81.40;;;;;;5114459;28;20434;-36
2023/09/09 06:16:50;;;;;;;22.33;19.92;;;21.00;81.50;;;;;;5114738;28;20024;-33
2023/09/09 06:19:16;;;;;;;22.83;19.92;;;21.00;81.50;;;;;;5114602;28;20072;-34
2023/09/09 06:21:41;;;;;;;22.75;20.35;;;21.00;81.50;;;;;;5114198;28;20025;-34
2023/09/09 06:24:08;;;;;;;23.23;20.70;;;21.00;81.50;;;;;;5112826;28;20027;-35
2023/09/09 06:26:34;;;;;;;23.02;20.50;;;21.10;81.50;;;;;;5095783;28;20057;-35
2023/09/09 06:29:00;;;;;;;23.63;20.25;;;21.10;81.40;;;;;;5114224;28;20472;-34
2023/09/09 06:31:26;;;;;;;23.63;19.98;;;21.20;81.40;;;;;;5114297;28;20023;-36
2023/09/09 06:33:52;;;;;;;23.65;20.98;;;21.20;81.30;;;;;;5114065;28;20035;-35
2023/09/09 06:36:20;;;;;;;26.90;22.33;;;21.30;81.30;;;;;;5114197;28;20053;-35
2023/09/09 06:38:46;;;;;;;23.75;20.50;;;21.30;81.20;;;;;;5095698;28;20110;-36
2023/09/09 06:41:13;;;;;;;25.10;21.42;;;21.40;81.20;;;;;;5114220;28;20360;-34
2023/09/09 06:43:38;;;;;;;26.48;21.40;;;21.40;81.10;;;;;;5114036;28;20053;-29
2023/09/09 06:46:04;;;;;;;29.63;24.20;;;21.40;81.00;;;;;;5113896;28;20023;-34
2023/09/09 06:48:30;;;;;;;32.13;26.35;;;21.50;81.00;;;;;;5113822;28;20036;-26
2023/09/09 06:50:55;;;;;;;36.58;30.30;;;21.50;81.00;;;;;;5113442;28;20073;-29
2023/09/09 06:53:22;;;;;;;41.28;31.67;;;21.50;81.00;;;;;;5113000;28;20023;-30
2023/09/09 06:55:48;;;;;;;41.72;33.30;;;21.50;81.10;;;;;;5113544;28;20412;-26
2023/09/09 06:58:14;;;;;;;41.65;32.58;;;21.60;81.10;;;;;;5113653;28;20055;-28
2023/09/09 07:00:39;;;;;;;40.35;32.30;;;21.60;81.10;;;;;;5113640;28;20034;-26
2023/09/09 07:03:07;;;;;;;40.03;31.05;;;21.70;81.00;;;;;;5113461;28;20024;-27
2023/09/09 07:05:33;;;;;;;36.40;29.50;;;21.80;80.90;;;;;;5113403;28;20054;-28
2023/09/09 07:07:58;;;;;;;36.47;29.98;;;21.80;80.90;;;;;;5113445;28;20082;-29
2023/09/09 07:10:24;;;;;;;36.47;29.45;;;21.80;80.80;;;;;;5113933;28;20027;-32
2023/09/09 07:12:49;;;;;;;38.13;29.05;;;21.90;80.80;;;;;;5113261;28;20366;-27
2023/09/09 07:15:15;;;;;;;33.97;27.83;;;21.90;80.60;;;;;;5113335;28;20468;-31
2023/09/09 07:17:43;;;;;;;88.28;24.38;;;21.90;80.60;;;;;;5113412;28;20522;-27
2023/09/09 07:20:09;;;;;;;63.03;24.38;;;21.90;80.60;;;;;;5113425;28;20481;-30
2023/09/09 07:22:35;;;;;;;30.52;24.08;;;21.90;80.60;;;;;;5113293;28;20028;-27
2023/09/09 07:25:00;;;;;;;29.23;24.08;;;21.90;80.80;;;;;;5113026;28;20020;-32
2023/09/09 07:27:26;;;;;;;43.35;26.77;;;22.00;80.90;;;;;;5112985;28;20079;-29
2023/09/09 07:29:51;;;;;;;33.33;26.10;;;22.10;80.80;;;;;;5113067;28;20093;-30
2023/09/09 07:32:17;;;;;;;42.95;25.80;;;22.10;80.70;;;;;;5094639;28;20027;-34
2023/09/09 07:34:42;;;;;;;36.97;27.60;;;22.20;80.70;;;;;;5112875;28;20047;-32
2023/09/09 07:37:08;;;;;;;35.47;26.40;;;22.30;80.60;;;;;;5113090;28;20023;-31
2023/09/09 07:39:45;;;;;;;49.13;25.98;;;22.40;80.60;;;;;;5112797;28;20023;-30
2023/09/09 07:42:12;;;;;;;31.63;24.90;;;22.40;80.60;;;;;;5112585;28;20041;-31
2023/09/09 07:44:37;;;;;;;32.53;26.92;;;22.50;80.60;;;;;;5112375;28;20024;-28
2023/09/09 07:47:06;;;;;;;37.08;29.48;;;22.50;80.60;;;;;;5112446;28;20024;-30
2023/09/09 07:49:33;;;;;;;34.45;28.45;;;22.60;80.60;;;;;;5112708;28;20538;-31
2023/09/09 07:51:59;;;;;;;38.28;28.63;;;22.60;80.60;;;;;;5112802;28;20046;-31
2023/09/09 07:54:24;;;;;;;38.10;28.77;;;22.60;80.60;;;;;;5112372;28;20024;-28
2023/09/09 07:56:50;;;;;;;33.03;25.27;;;22.70;80.70;;;;;;5112316;28;20059;-28
2023/09/09 07:59:15;;;;;;;31.17;24.02;;;22.70;80.60;;;;;;5112411;28;20023;-44
2023/09/09 08:01:42;;;;;;;33.45;25.63;;;22.80;80.50;;;;;;5112489;28;20088;-44
2023/09/09 08:04:07;;;;;;;30.80;24.23;;;22.70;80.50;;;;;;5112223;28;20030;-43
2023/09/09 08:06:33;;;;;;;32.75;24.27;;;22.70;80.50;;;;;;5112199;28;20015;-44
2023/09/09 08:08:58;;;;;;;30.65;23.05;;;22.60;80.40;;;;;;5093842;28;20030;-42
2023/09/09 08:11:24;;;;;;;29.42;23.23;;;22.60;80.50;;;;;;5112407;28;20012;-43
2023/09/09 08:13:50;;;;;;;31.02;23.70;;;22.60;80.50;;;;;;5112008;28;20023;-42
2023/09/09 08:16:15;;;;;;;31.48;24.73;;;22.50;80.40;;;;;;5112088;28;20047;-43
2023/09/09 08:18:41;;;;;;;29.13;22.13;;;22.60;80.40;;;;;;5112149;28;20038;-42
2023/09/09 08:21:06;;;;;;;30.05;23.55;;;22.60;80.40;;;;;;5112143;28;20041;-44
2023/09/09 08:23:32;;;;;;;28.08;22.92;;;22.60;80.40;;;;;;5111718;28;20027;-43
2023/09/09 08:25:58;;;;;;;29.13;23.73;;;22.60;80.40;;;;;;5111992;28;20047;-43
2023/09/09 08:28:24;;;;;;;26.92;22.80;;;22.60;80.40;;;;;;5111726;28;20040;-41
2023/09/09 08:30:55;;;;;;;28.85;23.42;;;22.70;80.40;;;;;;5111944;28;20027;-40
2023/09/09 08:33:21;;;;;;;28.70;24.25;;;22.60;80.40;;;;;;5111813;28;20461;-43
2023/09/09 08:35:46;;;;;;;28.20;23.50;;;22.60;80.40;;;;;;5112371;28;20027;-44
2023/09/09 08:38:12;;;;;;;29.08;24.48;;;22.70;80.50;;;;;;5111845;28;20154;-43
2023/09/09 08:40:54;;;;;;;29.65;24.60;;;22.70;80.40;;;;;;5093566;28;20080;-44
2023/09/09 08:43:41;;;;;;;26.38;22.63;;;22.70;80.40;;;;;;5093312;28;20534;-39
2023/09/09 08:46:17;;;;;;;24.50;21.45;;;22.80;80.40;;;;;;5112066;28;20024;-43
2023/09/09 08:48:44;;;;;;;26.60;22.73;;;22.90;80.30;;;;;;5111803;28;20020;-41
2023/09/09 08:51:15;;;;;;;27.88;23.38;;;23.00;80.10;;;;;;5093457;28;20118;-43
2023/09/09 08:53:41;;;;;;;24.13;21.40;;;23.00;80.00;;;;;;5111613;28;20448;-39
2023/09/09 08:56:08;;;;;;;27.55;22.73;;;23.10;79.90;;;;;;5093143;28;20081;-43
2023/09/09 08:58:34;;;;;;;27.30;22.38;;;23.20;79.90;;;;;;5111886;28;20020;-44
2023/09/09 09:01:00;;;;;;;27.17;23.13;;;23.20;79.80;;;;;;5111806;28;20430;-43
2023/09/09 09:03:27;;;;;;;27.33;22.00;;;23.20;80.40;;;;;;5111547;28;20020;-44
2023/09/09 09:05:57;;;;;;;24.77;21.52;;;23.30;79.70;;;;;;5111863;28;20533;-42
2023/09/09 09:08:23;;;;;;;24.38;20.83;;;23.40;79.70;;;;;;5111545;28;20016;-40
2023/09/09 09:10:49;;;;;;;28.35;22.83;;;23.50;79.50;;;;;;5111668;28;20084;-40
2023/09/09 09:13:15;;;;;;;27.10;21.60;;;23.60;79.40;;;;;;5111392;28;20069;-43
2023/09/09 09:15:42;;;;;;;26.58;21.83;;;23.60;79.30;;;;;;5114041;28;20119;-43
2023/09/09 09:18:08;;;;;;;27.95;21.83;;;23.70;79.10;;;;;;5115648;28;20027;-46
2023/09/09 09:20:34;;;;;;;26.27;22.35;;;23.80;79.10;;;;;;5097039;28;20164;-41
2023/09/09 09:23:03;;;;;;;26.15;20.85;;;23.90;78.90;;;;;;5115331;28;20055;-42
2023/09/09 09:25:36;;;;;;;26.45;20.85;;;24.00;78.80;;;;;;5115742;28;20020;-41
2023/09/09 09:28:03;;;;;;;21.10;18.77;;;24.10;78.70;;;;;;5115692;28;20039;-42
2023/09/09 09:30:31;;;;;;;23.17;19.20;;;24.20;78.50;;;;;;5115962;28;20102;-43
2023/09/09 09:32:56;;;;;;;22.67;19.35;;;24.20;78.30;;;;;;5097458;28;20019;-42
2023/09/09 09:35:27;;;;;;;19.55;17.45;;;24.30;78.10;;;;;;5115925;28;20385;-34
2023/09/09 09:37:55;;;;;;;20.55;17.33;;;24.40;77.80;;;;;;5115762;28;20038;-39
2023/09/09 09:40:21;;;;;;;20.83;18.00;;;24.50;77.60;;;;;;5097406;28;20085;-36
2023/09/09 09:42:46;;;;;;;18.10;16.17;;;24.60;77.30;;;;;;5115637;28;20031;-36
2023/09/09 09:45:12;;;;;;;20.05;16.85;;;24.70;77.10;;;;;;5115603;28;20586;-34
2023/09/09 09:47:43;;;;;;;17.67;15.63;;;24.80;76.90;;;;;;5115729;28;20030;-37
2023/09/09 09:50:23;;;;;;;20.45;17.77;;;24.90;76.70;;;;;;5115801;28;20023;-34
2023/09/09 09:52:59;;;;;;;21.25;18.35;;;24.90;76.30;;;;;;5115495;28;20516;-34
2023/09/09 09:55:25;;;;;;;19.55;16.02;;;24.90;76.20;;;;;;5115456;28;20046;-37
2023/09/09 09:57:59;;;;;;;19.65;17.40;;;25.00;76.10;;;;;;5115383;28;20024;-34
2023/09/09 10:00:25;;;;;;;18.60;16.55;;;25.10;76.00;;;;;;5115523;28;20023;-33
2023/09/09 10:02:52;;;;;;;15.57;13.88;;;25.20;75.90;;;;;;5115641;28;20019;-43
2023/09/09 10:05:22;;;;;;;15.30;13.68;;;25.20;75.60;;;;;;5115475;28;20059;-34
2023/09/09 10:08:11;;;;;;;15.77;13.80;;;25.20;75.20;;;;;;5115388;28;20020;-38
2023/09/09 10:10:42;;;;;;;15.15;12.50;;;25.30;75.20;;;;;;5099583;28;20039;-35
2023/09/09 10:13:11;;;;;;;15.35;13.18;;;25.40;74.80;;;;;;5114432;28;20027;-35
2023/09/09 10:15:38;;;;;;;19.35;16.63;;;25.40;74.60;;;;;;5114477;28;20030;-36
2023/09/09 10:18:05;;;;;;;18.08;15.27;;;25.50;74.50;;;;;;5114323;28;20028;-54
2023/09/09 10:20:34;;;;;;;21.40;19.17;;;25.60;74.40;;;;;;5114188;28;20040;-33
2023/09/09 10:23:02;;;;;;;22.70;19.15;;;25.70;74.40;;;;;;5114111;28;20388;-33
2023/09/09 10:25:30;;;;;;;20.27;16.90;;;25.70;74.30;;;;;;5114046;28;20030;-34
2023/09/09 10:27:56;;;;;;;18.83;16.25;;;25.80;74.40;;;;;;5113080;28;20044;-34
2023/09/09 10:30:23;;;;;;;15.43;13.27;;;25.80;73.90;;;;;;5114165;28;20015;-35
2023/09/09 10:32:49;;;;;;;19.23;15.20;;;25.90;73.50;;;;;;5114013;28;20038;-36
2023/09/09 10:35:17;;;;;;;14.65;12.82;;;26.00;73.40;;;;;;5114199;28;20028;-34
2023/09/09 10:37:43;;;;;;;13.95;12.20;;;26.00;73.00;;;;;;5114103;28;20030;-33
2023/09/09 10:40:10;;;;;;;15.48;12.75;;;26.10;72.60;;;;;;5114253;28;20481;-33
2023/09/09 10:42:38;;;;;;;12.35;11.05;;;26.10;71.90;;;;;;5113877;28;20083;-34
2023/09/09 10:45:28;;;;;;;14.27;11.80;;;26.20;71.80;;;;;;5114277;28;20028;-33
2023/09/09 10:48:04;;;;;;;13.57;11.05;;;26.20;71.70;;;;;;5114207;28;20115;-33
2023/09/09 10:50:45;;;;;;;12.25;10.60;;;26.30;71.40;;;;;;5095965;28;20038;-34
2023/09/09 10:53:22;;;;;;;11.30;10.10;;;26.30;71.00;;;;;;5114040;28;20412;-34
2023/09/09 10:55:48;;;;;;;12.23;10.35;;;26.30;70.70;;;;;;5114097;28;20031;-33
2023/09/09 10:58:16;;;;;;;11.02;9.93;;;26.40;70.40;;;;;;5113877;28;20029;-33
2023/09/09 11:00:48;;;;;;;12.30;9.75;;;26.40;70.00;;;;;;5113787;28;20054;-34
2023/09/09 11:03:16;;;;;;;11.32;8.85;;;26.50;69.50;;;;;;5113846;28;20023;-35
2023/09/09 11:06:04;;;;;;;12.20;11.02;;;26.50;69.30;;;;;;5113664;28;20515;-33
2023/09/09 11:08:35;;;;;;;10.60;9.52;;;26.60;69.50;;;;;;5114066;28;20490;-33
2023/09/09 11:11:18;;;;;;;9.52;8.57;;;26.70;69.40;;;;;;5113674;28;20020;-34
2023/09/09 11:13:51;;;;;;;10.80;9.70;;;26.70;69.10;;;;;;5113458;28;20053;-33
2023/09/09 11:16:31;;;;;;;8.55;7.75;;;26.80;69.30;;;;;;5113673;28;20381;-35
2023/09/09 11:18:59;;;;;;;8.27;7.47;;;26.90;68.80;;;;;;5113539;28;20023;-34
2023/09/09 11:21:25;;;;;;;10.95;8.02;;;26.90;68.50;;;;;;5113395;28;20038;-33
2023/09/09 11:23:51;;;;;;;8.88;7.97;;;27.00;68.20;;;;;;5113385;28;20020;-33
2023/09/09 11:26:17;;;;;;;8.45;7.65;;;27.10;68.00;;;;;;5113620;28;20384;-35
2023/09/09 11:28:45;;;;;;;9.00;8.00;;;27.10;67.50;;;;;;5113248;28;20047;-33
2023/09/09 11:31:12;;;;;;;7.75;7.05;;;27.20;67.00;;;;;;5113258;28;20496;-33
2023/09/09 11:33:38;;;;;;;7.82;6.85;;;27.20;66.60;;;;;;5113019;28;20046;-35
2023/09/09 11:36:04;;;;;;;7.97;7.10;;;27.30;66.40;;;;;;5113443;28;20236;-35
2023/09/09 11:38:39;;;;;;;10.07;8.63;;;27.30;66.00;;;;;;5113139;28;20480;-33
2023/09/09 11:41:05;;;;;;;9.40;6.80;;;27.40;65.90;;;;;;5112809;28;20487;-34
2023/09/09 11:43:31;;;;;;;7.93;6.85;;;27.40;65.80;;;;;;5112743;28;20476;-32
2023/09/09 11:45:57;;;;;;;8.00;6.85;;;27.50;65.40;;;;;;5112563;28;20023;-36
2023/09/09 11:48:23;;;;;;;6.72;6.03;;;27.50;64.40;;;;;;5112611;28;20027;-35
2023/09/09 11:50:50;;;;;;;6.20;5.32;;;27.50;63.80;;;;;;5112754;28;20023;-35
2023/09/09 11:53:18;;;;;;;6.00;5.40;;;27.60;63.30;;;;;;5112632;28;20483;-36
2023/09/09 11:55:43;;;;;;;5.30;4.80;;;27.60;62.60;;;;;;5094089;28;20469;-35
2023/09/09 11:58:09;;;;;;;6.60;5.32;;;27.70;62.40;;;;;;5094157;28;20034;-34
2023/09/09 12:00:35;;;;;;;7.03;5.20;;;27.80;62.10;;;;;;5112330;28;20058;-35
2023/09/09 12:03:00;;;;;;;5.80;5.20;;;27.90;62.00;;;;;;5112409;28;20649;-34
2023/09/09 12:05:30;;;;;;;5.80;4.85;;;28.00;61.90;;;;;;5112225;28;20080;-35
2023/09/09 12:07:58;;;;;;;6.55;4.20;;;28.10;61.30;;;;;;5112558;28;20015;-35
2023/09/09 12:10:27;;;;;;;4.95;4.05;;;28.10;61.00;;;;;;5112202;28;20358;-34
2023/09/09 12:12:53;;;;;;;4.40;4.00;;;28.20;60.40;;;;;;5112303;28;20020;-35
2023/09/09 12:15:19;;;;;;;3.45;3.15;;;28.30;60.00;;;;;;5112634;28;20087;-35
2023/09/09 12:17:45;;;;;;;4.03;3.42;;;28.40;59.40;;;;;;5112729;28;20031;-35
2023/09/09 12:20:11;;;;;;;3.97;3.20;;;28.40;58.90;;;;;;5112645;28;20024;-34
2023/09/09 12:22:47;;;;;;;3.63;3.30;;;28.60;58.30;;;;;;5112484;28;20024;-33
2023/09/09 12:25:33;;;;;;;4.20;3.17;;;28.70;57.60;;;;;;5112568;28;20480;-35
2023/09/09 12:27:59;;;;;;;3.63;3.30;;;28.70;57.00;;;;;;5112337;28;20415;-35
2023/09/09 12:30:32;;;;;;;3.47;3.17;;;28.80;56.60;;;;;;5112411;28;20108;-35
2023/09/09 12:33:24;;;;;;;5.35;3.40;;;28.90;56.10;;;;;;5112508;28;20030;-35
2023/09/09 12:35:51;;;;;;;5.78;4.15;;;29.00;55.60;;;;;;5108545;28;20538;-34